Time;durP1;ratioP1;P1;durP2;ratioP2;P2;SDS_P1;SDS_P2;PMS_P1;PMS_P2;Temp;Humidity;BMP_temperature;BMP_pressure;BME280_temperature;BME280_humidity;BME280_pressure;Samples;Min_cycle;Max_cycle;Signal;HPM_P1;HPM_P2
2023/09/23 00:02:10;;;;;;;;;;;;;;;;;;6153419;23;19949;-92
2023/09/23 00:04:36;;;;;;;;;;;;;;;;;;6154972;23;19912;-92
2023/09/23 00:07:04;;;;;;;;;;;;;;;;;;6154474;23;19915;-92
2023/09/23 00:09:31;;;;;;;;;;;;;;;;;;6153069;23;20337;-92
2023/09/23 00:12:00;;;;;;;;;;;;;;;;;;6154108;23;19908;-91
2023/09/23 00:14:26;;;;;;;;;;;;;;;;;;6152740;23;19908;-91
2023/09/23 00:16:52;;;;;;;;;;;;;;;;;;6153076;23;20501;-91
2023/09/23 00:19:18;;;;;;;;;;;;;;;;;;6155735;23;19908;-90
2023/09/23 00:21:45;;;;;;;;;;;;;;;;;;6154140;23;20346;-91
2023/09/23 00:24:13;;;;;;;;;;;;;;;;;;6154613;23;19909;-91
2023/09/23 00:26:39;;;;;;;;;;;;;;;;;;6154657;23;20505;-91
2023/09/23 00:29:05;;;;;;;;;;;;;;;;;;6154060;23;19940;-89
2023/09/23 00:31:31;;;;;;;;;;;;;;;;;;6151320;23;19908;-89
2023/09/23 00:33:58;;;;;;;;;;;;;;;;;;6152910;23;19967;-88
2023/09/23 00:36:25;;;;;;;;;;;;;;;;;;6152459;23;20384;-89
2023/09/23 00:38:58;;;;;;;;;;;;;;;;;;5817077;23;7965910;-89
2023/09/23 00:41:25;;;;;;;;;;;;;;;;;;6153514;23;19912;-89
2023/09/23 00:43:51;;;;;;;;;;;;;;;;;;6153181;23;19908;-87
2023/09/23 00:46:22;;;;;;;;;;;;;;;;;;6154409;23;19916;-89
2023/09/23 00:48:49;;;;;;;;;;;;;;;;;;6153312;23;19908;-89
2023/09/23 00:51:15;;;;;;;;;;;;;;;;;;6154470;23;20239;-89
2023/09/23 00:53:42;;;;;;;;;;;;;;;;;;6153401;23;20334;-89
2023/09/23 00:56:08;;;;;;;;;;;;;;;;;;6151426;23;19980;-89
2023/09/23 00:58:36;;;;;;;;;;;;;;;;;;6180294;23;19908;-91
2023/09/23 01:01:02;;;;;;;;;;;;;;;;;;6153896;23;20343;-90
2023/09/23 01:03:30;;;;;;;;;;;;;;;;;;6154886;23;19912;-90
2023/09/23 01:05:57;;;;;;;;;;;;;;;;;;6153889;23;19908;-89
2023/09/23 01:08:31;;;;;;;;;;;;;;;;;;6152378;23;20327;-89
2023/09/23 01:10:57;;;;;;;;;;;;;;;;;;6153647;23;19958;-90
2023/09/23 01:13:24;;;;;;;;;;;;;;;;;;6154983;23;19912;-91
2023/09/23 01:15:51;;;;;;;;;;;;;;;;;;6155712;23;19934;-92
2023/09/23 01:18:17;;;;;;;;;;;;;;;;;;6155593;23;20425;-92
2023/09/23 01:20:44;;;;;;;;;;;;;;;;;;6154865;23;19915;-91
2023/09/23 01:23:10;;;;;;;;;;;;;;;;;;6181490;23;19920;-90
2023/09/23 01:25:37;;;;;;;;;;;;;;;;;;6181354;23;19948;-90
2023/09/23 01:28:11;;;;;;;;;;;;;;;;;;6155449;23;19939;-90
2023/09/23 01:30:37;;;;;;;;;;;;;;;;;;6155716;23;19912;-90
2023/09/23 01:33:07;;;;;;;;;;;;;;;;;;6154704;23;19908;-90
2023/09/23 01:35:33;;;;;;;;;;;;;;;;;;6156095;23;20519;-91
2023/09/23 01:37:59;;;;;;;;;;;;;;;;;;6154725;23;19913;-88
2023/09/23 01:40:29;;;;;;;;;;;;;;;;;;6156576;23;20355;-89
2023/09/23 01:42:55;;;;;;;;;;;;;;;;;;6155117;23;20346;-89
2023/09/23 01:45:22;;;;;;;;;;;;;;;;;;6153771;23;19908;-90
2023/09/23 01:47:49;;;;;;;;;;;;;;;;;;6155473;23;19915;-89
2023/09/23 01:50:18;;;;;;;;;;;;;;;;;;6156532;23;19905;-90
2023/09/23 01:52:44;;;;;;;;;;;;;;;;;;6157280;23;19904;-90
2023/09/23 01:55:13;;;;;;;;;;;;;;;;;;6155025;23;20015;-89
2023/09/23 01:57:39;;;;;;;;;;;;;;;;;;6156403;23;20035;-89
2023/09/23 02:00:06;;;;;;;;;;;;;;;;;;6155375;23;20334;-90
2023/09/23 02:02:33;;;;;;;;;;;;;;;;;;6156514;23;19904;-90
2023/09/23 02:04:59;;;;;;;;;;;;;;;;;;6156724;23;19927;-89
2023/09/23 02:07:26;;;;;;;;;;;;;;;;;;6156936;23;19912;-89
2023/09/23 02:09:52;;;;;;;;;;;;;;;;;;6153904;23;19911;-90
2023/09/23 02:12:18;;;;;;;;;;;;;;;;;;6155265;23;19908;-88
2023/09/23 02:14:44;;;;;;;;;;;;;;;;;;6154779;23;19910;-89
2023/09/23 02:17:10;;;;;;;;;;;;;;;;;;6156378;23;20293;-89
2023/09/23 02:19:36;;;;;;;;;;;;;;;;;;6155555;23;19911;-90
2023/09/23 02:22:05;;;;;;;;;;;;;;;;;;6181815;23;19904;-90
2023/09/23 02:24:32;;;;;;;;;;;;;;;;;;6155976;23;19912;-89
2023/09/23 02:26:58;;;;;;;;;;;;;;;;;;6183701;23;19932;-90
2023/09/23 02:29:24;;;;;;;;;;;;;;;;;;6181859;23;19915;-90
2023/09/23 02:31:50;;;;;;;;;;;;;;;;;;6183177;23;19916;-90
2023/09/23 02:34:16;;;;;;;;;;;;;;;;;;6155517;23;19916;-89
2023/09/23 02:36:43;;;;;;;;;;;;;;;;;;6181603;23;19908;-89
2023/09/23 02:39:14;;;;;;;;;;;;;;;;;;6186052;22;19919;-90
2023/09/23 02:41:40;;;;;;;;;;;;;;;;;;6155523;23;19916;-89
2023/09/23 02:44:07;;;;;;;;;;;;;;;;;;6155201;23;19912;-90
2023/09/23 02:46:33;;;;;;;;;;;;;;;;;;6156631;23;19904;-89
2023/09/23 02:48:59;;;;;;;;;;;;;;;;;;6156288;23;19908;-91
2023/09/23 02:51:26;;;;;;;;;;;;;;;;;;6156071;23;19962;-92
2023/09/23 02:53:52;;;;;;;;;;;;;;;;;;6157686;23;20326;-91
2023/09/23 02:56:18;;;;;;;;;;;;;;;;;;6157069;23;19908;-91
2023/09/23 02:58:44;;;;;;;;;;;;;;;;;;6157497;23;19930;-91
2023/09/23 03:01:14;;;;;;;;;;;;;;;;;;6155507;23;19905;-92
2023/09/23 03:03:40;;;;;;;;;;;;;;;;;;6156375;23;19916;-92
2023/09/23 03:06:07;;;;;;;;;;;;;;;;;;6158176;23;20277;-92
2023/09/23 03:08:36;;;;;;;;;;;;;;;;;;6156359;23;19909;-91
2023/09/23 03:11:02;;;;;;;;;;;;;;;;;;6157183;23;19991;-92
2023/09/23 03:13:29;;;;;;;;;;;;;;;;;;6156879;23;19931;-91
2023/09/23 03:16:04;;;;;;;;;;;;;;;;;;6156950;23;20325;-93
2023/09/23 03:18:33;;;;;;;;;;;;;;;;;;6156436;23;19908;-91
2023/09/23 03:20:59;;;;;;;;;;;;;;;;;;6157404;23;19913;-92
2023/09/23 03:23:26;;;;;;;;;;;;;;;;;;6155999;23;20141;-92
2023/09/23 03:25:52;;;;;;;;;;;;;;;;;;6157113;23;19927;-92
2023/09/23 03:28:18;;;;;;;;;;;;;;;;;;6157905;23;19908;-92
2023/09/23 03:30:47;;;;;;;;;;;;;;;;;;6156675;23;19911;-91
2023/09/23 03:33:13;;;;;;;;;;;;;;;;;;6157571;23;19951;-92
2023/09/23 03:35:39;;;;;;;;;;;;;;;;;;6157767;23;19912;-93
2023/09/23 03:38:05;;;;;;;;;;;;;;;;;;6156610;23;19950;-90
2023/09/23 03:40:31;;;;;;;;;;;;;;;;;;6161166;23;19917;-90
2023/09/23 03:42:57;;;;;;;;;;;;;;;;;;6155391;23;19904;-91
2023/09/23 03:45:23;;;;;;;;;;;;;;;;;;6157477;23;20270;-92
2023/09/23 03:47:49;;;;;;;;;;;;;;;;;;6156491;23;19919;-89
2023/09/23 03:50:15;;;;;;;;;;;;;;;;;;6158082;23;19935;-91
2023/09/23 03:52:41;;;;;;;;;;;;;;;;;;6156472;23;19905;-91
2023/09/23 03:55:08;;;;;;;;;;;;;;;;;;6157198;23;20050;-90
2023/09/23 03:57:34;;;;;;;;;;;;;;;;;;6154738;23;19910;-92
2023/09/23 04:00:00;;;;;;;;;;;;;;;;;;6155415;23;19913;-91
2023/09/23 04:02:26;;;;;;;;;;;;;;;;;;6155372;23;20204;-92
2023/09/23 04:04:53;;;;;;;;;;;;;;;;;;6157301;23;19948;-91
2023/09/23 04:07:19;;;;;;;;;;;;;;;;;;6156146;23;19908;-92
2023/09/23 04:09:45;;;;;;;;;;;;;;;;;;6155993;23;19958;-92
2023/09/23 04:12:12;;;;;;;;;;;;;;;;;;6154042;23;19931;-93
2023/09/23 04:14:37;;;;;;;;;;;;;;;;;;6154363;23;19983;-92
2023/09/23 04:17:04;;;;;;;;;;;;;;;;;;6154384;23;19944;-93
2023/09/23 04:19:36;;;;;;;;;;;;;;;;;;6156318;23;20692;-93
2023/09/23 04:22:04;;;;;;;;;;;;;;;;;;6155047;23;19920;-93
2023/09/23 04:24:31;;;;;;;;;;;;;;;;;;6155500;23;19954;-93
2023/09/23 04:26:59;;;;;;;;;;;;;;;;;;6154524;23;19938;-92
2023/09/23 04:29:25;;;;;;;;;;;;;;;;;;6156332;23;19911;-92
2023/09/23 04:31:51;;;;;;;;;;;;;;;;;;6156408;23;19904;-93
2023/09/23 04:34:17;;;;;;;;;;;;;;;;;;6154669;23;19956;-93
2023/09/23 04:36:44;;;;;;;;;;;;;;;;;;6154473;23;19908;-93
2023/09/23 04:39:10;;;;;;;;;;;;;;;;;;6158374;23;20318;-92
2023/09/23 04:41:40;;;;;;;;;;;;;;;;;;6157876;23;19921;-93
2023/09/23 04:44:06;;;;;;;;;;;;;;;;;;6182148;23;19913;-92
2023/09/23 04:46:33;;;;;;;;;;;;;;;;;;6156768;23;19908;-93
2023/09/23 04:49:00;;;;;;;;;;;;;;;;;;6154915;23;20386;-92
2023/09/23 04:51:25;;;;;;;;;;;;;;;;;;6154639;23;20133;-92
2023/09/23 04:53:51;;;;;;;;;;;;;;;;;;6153312;23;19908;-93
2023/09/23 04:56:18;;;;;;;;;;;;;;;;;;6156640;23;19967;-93
2023/09/23 04:58:43;;;;;;;;;;;;;;;;;;6155997;23;19936;-92
2023/09/23 05:01:12;;;;;;;;;;;;;;;;;;6180366;23;19920;-92
2023/09/23 05:03:37;;;;;;;;;;;;;;;;;;6179597;23;19923;-92
2023/09/23 05:06:05;;;;;;;;;;;;;;;;;;6156155;23;20549;-92
2023/09/23 05:08:35;;;;;;;;;;;;;;;;;;6155710;23;19958;-92
2023/09/23 05:11:02;;;;;;;;;;;;;;;;;;6153867;23;19966;-92
2023/09/23 05:13:29;;;;;;;;;;;;;;;;;;6153836;23;19938;-93
2023/09/23 05:15:55;;;;;;;;;;;;;;;;;;6155195;23;19915;-92
2023/09/23 05:18:23;;;;;;;;;;;;;;;;;;6153824;23;19908;-92
2023/09/23 05:20:49;;;;;;;;;;;;;;;;;;6154001;23;19912;-92
2023/09/23 05:23:15;;;;;;;;;;;;;;;;;;6155780;23;19998;-92
2023/09/23 05:25:41;;;;;;;;;;;;;;;;;;6157958;23;20307;-92
2023/09/23 05:28:10;;;;;;;;;;;;;;;;;;6157107;23;19979;-92
2023/09/23 05:30:36;;;;;;;;;;;;;;;;;;6158387;23;19915;-92
2023/09/23 05:33:02;;;;;;;;;;;;;;;;;;6157979;23;19912;-92
2023/09/23 05:35:28;;;;;;;;;;;;;;;;;;6158980;23;19963;-92
2023/09/23 05:37:54;;;;;;;;;;;;;;;;;;6158116;23;19936;-92
2023/09/23 05:42:49;;;;;;;;;;;;;;;;;;6192590;23;19908;-92
2023/09/23 05:45:15;;;;;;;;;;;;;;;;;;6160638;23;19983;-92
2023/09/23 05:47:41;;;;;;;;;;;;;;;;;;6157108;23;19905;-92
2023/09/23 05:50:07;;;;;;;;;;;;;;;;;;6158667;23;19908;-92
2023/09/23 05:52:35;;;;;;;;;;;;;;;;;;6155773;23;19969;-92
2023/09/23 05:55:01;;;;;;;;;;;;;;;;;;6157864;23;19916;-92
2023/09/23 05:57:26;;;;;;;;;;;;;;;;;;6158265;23;19908;-93
2023/09/23 05:59:53;;;;;;;;;;;;;;;;;;6158818;23;19915;-93
2023/09/23 06:02:18;;;;;;;;;;;;;;;;;;6156419;23;19927;-93
2023/09/23 06:04:44;;;;;;;;;;;;;;;;;;6158831;23;19912;-93
2023/09/23 06:07:10;;;;;;;;;;;;;;;;;;6156415;23;19912;-92
2023/09/23 06:09:36;;;;;;;;;;;;;;;;;;6158052;23;19915;-92
2023/09/23 06:12:02;;;;;;;;;;;;;;;;;;6158166;23;20153;-94
2023/09/23 06:14:28;;;;;;;;;;;;;;;;;;6182583;23;19914;-92
2023/09/23 06:16:54;;;;;;;;;;;;;;;;;;6158104;23;19935;-89
2023/09/23 06:19:20;;;;;;;;;;;;;;;;;;6156154;23;20011;-89
2023/09/23 06:21:46;;;;;;;;;;;;;;;;;;6154911;23;19955;-91
2023/09/23 06:24:12;;;;;;;;;;;;;;;;;;6155922;23;19908;-89
2023/09/23 06:26:38;;;;;;;;;;;;;;;;;;6155579;23;20354;-91
2023/09/23 06:29:04;;;;;;;;;;;;;;;;;;6156616;23;19915;-90
2023/09/23 06:31:30;;;;;;;;;;;;;;;;;;6155710;23;19912;-90
2023/09/23 06:33:56;;;;;;;;;;;;;;;;;;6155507;23;20020;-90
2023/09/23 06:36:22;;;;;;;;;;;;;;;;;;6155624;23;19932;-89
2023/09/23 06:38:48;;;;;;;;;;;;;;;;;;6157381;23;19915;-91
2023/09/23 06:41:14;;;;;;;;;;;;;;;;;;6160898;22;19916;-89
2023/09/23 06:43:40;;;;;;;;;;;;;;;;;;6155275;23;19967;-90
2023/09/23 06:46:07;;;;;;;;;;;;;;;;;;6155746;23;19916;-89
2023/09/23 06:48:33;;;;;;;;;;;;;;;;;;6154602;23;19909;-92
2023/09/23 06:50:59;;;;;;;;;;;;;;;;;;6154387;23;19916;-90
2023/09/23 06:53:25;;;;;;;;;;;;;;;;;;6154201;23;19912;-89
2023/09/23 06:55:51;;;;;;;;;;;;;;;;;;6151962;23;19935;-90
2023/09/23 06:58:17;;;;;;;;;;;;;;;;;;6154202;23;19908;-91
2023/09/23 07:00:43;;;;;;;;;;;;;;;;;;6156029;23;19931;-90
2023/09/23 07:03:09;;;;;;;;;;;;;;;;;;6154302;23;19912;-91
2023/09/23 07:05:35;;;;;;;;;;;;;;;;;;6155846;23;19911;-90
2023/09/23 07:08:01;;;;;;;;;;;;;;;;;;6155230;23;20566;-90
2023/09/23 07:10:27;;;;;;;;;;;;;;;;;;6155138;23;19904;-89
2023/09/23 07:12:53;;;;;;;;;;;;;;;;;;6154857;23;19904;-88
2023/09/23 07:15:19;;;;;;;;;;;;;;;;;;6155322;23;19910;-90
2023/09/23 07:17:45;;;;;;;;;;;;;;;;;;6157322;23;19911;-90
2023/09/23 07:20:11;;;;;;;;;;;;;;;;;;6154098;23;19962;-90
2023/09/23 07:22:37;;;;;;;;;;;;;;;;;;6155509;23;19908;-89
2023/09/23 07:25:04;;;;;;;;;;;;;;;;;;6155875;23;20239;-90
2023/09/23 07:27:31;;;;;;;;;;;;;;;;;;6156525;23;19959;-90
2023/09/23 07:29:56;;;;;;;;;;;;;;;;;;6156512;23;19949;-89
2023/09/23 07:32:28;;;;;;;;;;;;;;;;;;6156659;23;20712;-92
2023/09/23 07:34:55;;;;;;;;;;;;;;;;;;6157782;23;19904;-89
2023/09/23 07:37:20;;;;;;;;;;;;;;;;;;6155188;23;19908;-90
2023/09/23 07:39:46;;;;;;;;;;;;;;;;;;6156587;23;19904;-91
2023/09/23 07:42:12;;;;;;;;;;;;;;;;;;6159525;23;19923;-87
2023/09/23 07:44:38;;;;;;;;;;;;;;;;;;6154401;23;20469;-86
2023/09/23 07:47:04;;;;;;;;;;;;;;;;;;6153645;23;19909;-87
2023/09/23 07:49:30;;;;;;;;;;;;;;;;;;6155077;23;20406;-86
2023/09/23 07:51:58;;;;;;;;;;;;;;;;;;6149877;23;19916;-86
2023/09/23 07:54:24;;;;;;;;;;;;;;;;;;6177771;23;19958;-84
2023/09/23 07:56:50;;;;;;;;;;;;;;;;;;6151960;23;19935;-87
2023/09/23 07:59:16;;;;;;;;;;;;;;;;;;6153752;23;20294;-85
2023/09/23 08:01:42;;;;;;;;;;;;;;;;;;6150412;23;19904;-85
2023/09/23 08:04:08;;;;;;;;;;;;;;;;;;6152599;23;19978;-86
2023/09/23 08:06:34;;;;;;;;;;;;;;;;;;6179001;23;20493;-85
2023/09/23 08:09:00;;;;;;;;;;;;;;;;;;6151108;23;19908;-86
2023/09/23 08:11:26;;;;;;;;;;;;;;;;;;6153424;23;19978;-86
2023/09/23 08:13:53;;;;;;;;;;;;;;;;;;6150817;23;19909;-85
2023/09/23 08:16:19;;;;;;;;;;;;;;;;;;6153456;23;19950;-86
2023/09/23 08:18:52;;;;;;;;;;;;;;;;;;6150246;23;19909;-86
2023/09/23 08:21:18;;;;;;;;;;;;;;;;;;6153081;23;19932;-85
2023/09/23 08:23:44;;;;;;;;;;;;;;;;;;6152731;23;19908;-85
2023/09/23 08:26:10;;;;;;;;;;;;;;;;;;6150429;23;19954;-85
2023/09/23 08:28:36;;;;;;;;;;;;;;;;;;6151477;23;20029;-86
2023/09/23 08:31:06;;;;;;;;;;;;;;;;;;6152769;23;19927;-86
2023/09/23 08:33:32;;;;;;;;;;;;;;;;;;6152289;23;19904;-86
2023/09/23 08:35:58;;;;;;;;;;;;;;;;;;6151211;23;19908;-86
2023/09/23 08:38:24;;;;;;;;;;;;;;;;;;6154541;23;19941;-89
2023/09/23 08:40:50;;;;;;;;;;;;;;;;;;6154593;23;20624;-88
2023/09/23 08:43:16;;;;;;;;;;;;;;;;;;6158571;23;19940;-89
2023/09/23 08:45:46;;;;;;;;;;;;;;;;;;6182842;23;20004;-89
2023/09/23 08:48:12;;;;;;;;;;;;;;;;;;6183599;23;20401;-88
2023/09/23 08:50:38;;;;;;;;;;;;;;;;;;6155755;23;19908;-88
2023/09/23 08:53:06;;;;;;;;;;;;;;;;;;6156751;23;19916;-89
2023/09/23 08:55:31;;;;;;;;;;;;;;;;;;6154992;23;19951;-88
2023/09/23 08:58:02;;;;;;;;;;;;;;;;;;6157525;23;19904;-88
2023/09/23 09:00:30;;;;;;;;;;;;;;;;;;6157686;23;19948;-88
2023/09/23 09:02:56;;;;;;;;;;;;;;;;;;6157638;23;19908;-88
2023/09/23 09:05:23;;;;;;;;;;;;;;;;;;6158488;23;20043;-88
2023/09/23 09:07:49;;;;;;;;;;;;;;;;;;6158840;23;19908;-89
2023/09/23 09:10:17;;;;;;;;;;;;;;;;;;6156753;23;20349;-88
2023/09/23 09:12:42;;;;;;;;;;;;;;;;;;6157547;23;20242;-89
2023/09/23 09:15:08;;;;;;;;;;;;;;;;;;6157137;23;19908;-89
2023/09/23 09:17:34;;;;;;;;;;;;;;;;;;6157789;23;19908;-88
2023/09/23 09:20:01;;;;;;;;;;;;;;;;;;6157576;23;19975;-89
2023/09/23 09:22:27;;;;;;;;;;;;;;;;;;6184566;23;19950;-88
2023/09/23 09:24:53;;;;;;;;;;;;;;;;;;6157349;23;20393;-88
2023/09/23 09:27:21;;;;;;;;;;;;;;;;;;6184831;23;20148;-88
2023/09/23 09:29:47;;;;;;;;;;;;;;;;;;6157072;23;19926;-88
2023/09/23 09:32:14;;;;;;;;;;;;;;;;;;6184053;23;19956;-89
2023/09/23 09:34:40;;;;;;;;;;;;;;;;;;6158000;23;19950;-89
2023/09/23 09:37:06;;;;;;;;;;;;;;;;;;6159020;23;19912;-89
2023/09/23 09:39:32;;;;;;;;;;;;;;;;;;6156620;23;20448;-88
2023/09/23 09:41:59;;;;;;;;;;;;;;;;;;6158364;23;19904;-88
2023/09/23 09:44:25;;;;;;;;;;;;;;;;;;6158087;23;19923;-88
2023/09/23 09:46:51;;;;;;;;;;;;;;;;;;6157861;23;19904;-89
2023/09/23 09:49:17;;;;;;;;;;;;;;;;;;6155077;23;20011;-87
2023/09/23 09:51:43;;;;;;;;;;;;;;;;;;6156396;23;19934;-87
2023/09/23 09:54:11;;;;;;;;;;;;;;;;;;6153592;23;19908;-87
2023/09/23 09:56:37;;;;;;;;;;;;;;;;;;6155160;23;19908;-88
2023/09/23 09:59:03;;;;;;;;;;;;;;;;;;6154033;23;19915;-88
2023/09/23 10:01:30;;;;;;;;;;;;;;;;;;6154351;23;20282;-88
2023/09/23 10:03:55;;;;;;;;;;;;;;;;;;6153147;23;20419;-86
2023/09/23 10:06:22;;;;;;;;;;;;;;;;;;6154203;23;19936;-87
2023/09/23 10:08:48;;;;;;;;;;;;;;;;;;6153719;23;19911;-86
2023/09/23 10:11:14;;;;;;;;;;;;;;;;;;6154844;23;19908;-88
2023/09/23 10:13:42;;;;;;;;;;;;;;;;;;6179890;23;19912;-86
2023/09/23 10:16:11;;;;;;;;;;;;;;;;;;6154109;23;19908;-87
2023/09/23 10:18:39;;;;;;;;;;;;;;;;;;6152616;23;19904;-87
2023/09/23 10:21:05;;;;;;;;;;;;;;;;;;6154413;23;19935;-86
2023/09/23 10:23:32;;;;;;;;;;;;;;;;;;6154592;23;20322;-86
2023/09/23 10:25:58;;;;;;;;;;;;;;;;;;6154114;23;20208;-86
2023/09/23 10:28:24;;;;;;;;;;;;;;;;;;6154267;23;19931;-87
2023/09/23 10:30:50;;;;;;;;;;;;;;;;;;6153979;23;19982;-88
2023/09/23 10:33:17;;;;;;;;;;;;;;;;;;6153792;23;19908;-88
2023/09/23 10:35:43;;;;;;;;;;;;;;;;;;6153604;23;19997;-88
2023/09/23 10:38:09;;;;;;;;;;;;;;;;;;6153943;23;19912;-87
2023/09/23 10:40:35;;;;;;;;;;;;;;;;;;6152525;23;20541;-87
2023/09/23 10:43:01;;;;;;;;;;;;;;;;;;6155942;23;19951;-87
2023/09/23 10:45:27;;;;;;;;;;;;;;;;;;6153790;23;20230;-87
2023/09/23 10:47:53;;;;;;;;;;;;;;;;;;6154532;23;19908;-86
2023/09/23 10:50:20;;;;;;;;;;;;;;;;;;6154248;23;19916;-88
2023/09/23 10:52:46;;;;;;;;;;;;;;;;;;6180428;23;19932;-87
2023/09/23 10:55:13;;;;;;;;;;;;;;;;;;6152068;23;20331;-88
2023/09/23 10:57:39;;;;;;;;;;;;;;;;;;6181240;23;19912;-90
2023/09/23 11:00:20;;;;;;;;;;;;;;;;;;6157413;23;19915;-90
2023/09/23 11:02:46;;;;;;;;;;;;;;;;;;6158781;23;19908;-89
2023/09/23 11:05:13;;;;;;;;;;;;;;;;;;6156364;23;19935;-89
2023/09/23 11:07:39;;;;;;;;;;;;;;;;;;6157820;23;20512;-89
2023/09/23 11:10:05;;;;;;;;;;;;;;;;;;6157804;23;19958;-90
2023/09/23 11:12:32;;;;;;;;;;;;;;;;;;6155699;23;19924;-90
2023/09/23 11:14:59;;;;;;;;;;;;;;;;;;6157373;23;19912;-90
2023/09/23 11:17:31;;;;;;;;;;;;;;;;;;6156689;23;19931;-88
2023/09/23 11:19:57;;;;;;;;;;;;;;;;;;6156185;23;20394;-89
2023/09/23 11:22:23;;;;;;;;;;;;;;;;;;6182630;23;19959;-90
2023/09/23 11:24:49;;;;;;;;;;;;;;;;;;6154779;23;19919;-90
2023/09/23 11:27:17;;;;;;;;;;;;;;;;;;6156743;23;19908;-89
2023/09/23 11:29:43;;;;;;;;;;;;;;;;;;6156547;23;19909;-90
2023/09/23 11:32:08;;;;;;;;;;;;;;;;;;6157221;23;19908;-90
2023/09/23 11:34:36;;;;;;;;;;;;;;;;;;6156869;23;19912;-90
2023/09/23 11:37:05;;;;;;;;;;;;;;;;;;6157567;23;20250;-89
2023/09/23 11:39:31;;;;;;;;;;;;;;;;;;6155128;23;19912;-90
2023/09/23 11:41:58;;;;;;;;;;;;;;;;;;6156392;23;20329;-91
2023/09/23 11:44:24;;;;;;;;;;;;;;;;;;6161133;23;19966;-90
2023/09/23 11:46:50;;;;;;;;;;;;;;;;;;6157123;23;19935;-90
2023/09/23 11:49:16;;;;;;;;;;;;;;;;;;6157461;23;19905;-89
2023/09/23 11:51:42;;;;;;;;;;;;;;;;;;6157874;23;20103;-89
2023/09/23 11:54:10;;;;;;;;;;;;;;;;;;6154529;23;19962;-89
2023/09/23 11:56:36;;;;;;;;;;;;;;;;;;6157309;23;19915;-88
2023/09/23 11:59:02;;;;;;;;;;;;;;;;;;6156349;23;20388;-89
2023/09/23 12:01:28;;;;;;;;;;;;;;;;;;6157575;23;19912;-91
2023/09/23 12:03:58;;;;;;;;;;;;;;;;;;6157570;23;20510;-89
2023/09/23 12:06:25;;;;;;;;;;;;;;;;;;6157923;23;19924;-90
2023/09/23 12:08:51;;;;;;;;;;;;;;;;;;6156322;23;19912;-91
2023/09/23 12:11:19;;;;;;;;;;;;;;;;;;6154306;23;19980;-90
2023/09/23 12:13:45;;;;;;;;;;;;;;;;;;6154816;23;20315;-91
2023/09/23 12:16:12;;;;;;;;;;;;;;;;;;6181516;23;19908;-90
2023/09/23 12:18:38;;;;;;;;;;;;;;;;;;6154757;23;19908;-90
2023/09/23 12:21:04;;;;;;;;;;;;;;;;;;6156760;23;20271;-90
2023/09/23 12:23:30;;;;;;;;;;;;;;;;;;6156587;23;19943;-90
2023/09/23 12:25:56;;;;;;;;;;;;;;;;;;6155966;23;19908;-90
2023/09/23 12:28:22;;;;;;;;;;;;;;;;;;6156242;23;19955;-90
2023/09/23 12:30:48;;;;;;;;;;;;;;;;;;6156138;23;19911;-90
2023/09/23 12:33:14;;;;;;;;;;;;;;;;;;6156809;23;19915;-90
2023/09/23 12:35:40;;;;;;;;;;;;;;;;;;6156502;23;20382;-91
2023/09/23 12:38:12;;;;;;;;;;;;;;;;;;6157311;23;19908;-91
2023/09/23 12:40:38;;;;;;;;;;;;;;;;;;6155656;23;19984;-90
2023/09/23 12:43:04;;;;;;;;;;;;;;;;;;6156839;22;19998;-90
2023/09/23 12:45:30;;;;;;;;;;;;;;;;;;6156049;23;20330;-90
2023/09/23 12:47:56;;;;;;;;;;;;;;;;;;6157044;23;19951;-91
2023/09/23 12:50:22;;;;;;;;;;;;;;;;;;6156823;23;20358;-90
2023/09/23 12:52:48;;;;;;;;;;;;;;;;;;6156648;23;19966;-90
2023/09/23 12:55:14;;;;;;;;;;;;;;;;;;6156277;23;19912;-91
2023/09/23 12:57:40;;;;;;;;;;;;;;;;;;6156757;23;19908;-90
2023/09/23 13:00:06;;;;;;;;;;;;;;;;;;6156299;23;19909;-91
2023/09/23 13:02:32;;;;;;;;;;;;;;;;;;6155788;23;19927;-90
2023/09/23 13:04:58;;;;;;;;;;;;;;;;;;6157350;23;19913;-90
2023/09/23 13:07:24;;;;;;;;;;;;;;;;;;6156619;23;20251;-90
2023/09/23 13:09:50;;;;;;;;;;;;;;;;;;6156587;23;19919;-90
2023/09/23 13:12:16;;;;;;;;;;;;;;;;;;6182874;23;19911;-90
2023/09/23 13:14:42;;;;;;;;;;;;;;;;;;6154643;23;19904;-90
2023/09/23 13:17:08;;;;;;;;;;;;;;;;;;6157719;23;19911;-91
2023/09/23 13:19:34;;;;;;;;;;;;;;;;;;6156632;23;20799;-92
2023/09/23 13:22:00;;;;;;;;;;;;;;;;;;6157277;23;19912;-91
2023/09/23 13:24:28;;;;;;;;;;;;;;;;;;6155208;23;19958;-91
2023/09/23 13:26:54;;;;;;;;;;;;;;;;;;6157012;23;19904;-91
2023/09/23 13:29:20;;;;;;;;;;;;;;;;;;6155032;23;19908;-90
2023/09/23 13:31:45;;;;;;;;;;;;;;;;;;6157451;23;19956;-90
2023/09/23 13:34:18;;;;;;;;;;;;;;;;;;6155655;23;19936;-90
2023/09/23 13:36:44;;;;;;;;;;;;;;;;;;6155888;23;20472;-90
2023/09/23 13:39:09;;;;;;;;;;;;;;;;;;6154650;23;19981;-88
2023/09/23 13:41:35;;;;;;;;;;;;;;;;;;6156017;23;19992;-90
2023/09/23 13:44:01;;;;;;;;;;;;;;;;;;6156784;23;20320;-89
2023/09/23 13:46:27;;;;;;;;;;;;;;;;;;6157001;23;19910;-90
2023/09/23 13:48:53;;;;;;;;;;;;;;;;;;6156899;23;20722;-90
2023/09/23 13:51:19;;;;;;;;;;;;;;;;;;6158587;23;19979;-90
2023/09/23 13:53:45;;;;;;;;;;;;;;;;;;6157470;23;19908;-90
2023/09/23 13:56:11;;;;;;;;;;;;;;;;;;6157077;23;19935;-90
2023/09/23 13:58:37;;;;;;;;;;;;;;;;;;6158196;23;20323;-90
2023/09/23 14:01:03;;;;;;;;;;;;;;;;;;6157733;23;19919;-90
2023/09/23 14:03:29;;;;;;;;;;;;;;;;;;6156819;23;19912;-89
2023/09/23 14:05:55;;;;;;;;;;;;;;;;;;6182921;23;19908;-89
2023/09/23 14:08:21;;;;;;;;;;;;;;;;;;6157877;23;19913;-89
2023/09/23 14:10:47;;;;;;;;;;;;;;;;;;6157147;23;19926;-89
2023/09/23 14:13:13;;;;;;;;;;;;;;;;;;6157605;23;19915;-90
2023/09/23 14:15:39;;;;;;;;;;;;;;;;;;6156787;23;19915;-90
2023/09/23 14:18:05;;;;;;;;;;;;;;;;;;6183947;23;19908;-90
2023/09/23 14:20:37;;;;;;;;;;;;;;;;;;6156467;23;19908;-89
2023/09/23 14:23:03;;;;;;;;;;;;;;;;;;6157866;23;19916;-89
2023/09/23 14:25:29;;;;;;;;;;;;;;;;;;6182896;23;20190;-90
2023/09/23 14:27:58;;;;;;;;;;;;;;;;;;6157100;23;19952;-90
2023/09/23 14:30:24;;;;;;;;;;;;;;;;;;6156656;23;19958;-89
2023/09/23 14:32:50;;;;;;;;;;;;;;;;;;6157114;23;19990;-89
2023/09/23 14:35:16;;;;;;;;;;;;;;;;;;6157327;23;19935;-89
2023/09/23 14:37:44;;;;;;;;;;;;;;;;;;6156513;23;19927;-90
2023/09/23 14:40:10;;;;;;;;;;;;;;;;;;6155840;23;19908;-90
2023/09/23 14:42:42;;;;;;;;;;;;;;;;;;6156994;23;19910;-90
2023/09/23 14:45:08;;;;;;;;;;;;;;;;;;6158088;23;19920;-90
2023/09/23 14:47:34;;;;;;;;;;;;;;;;;;6157088;23;19931;-89
2023/09/23 14:50:00;;;;;;;;;;;;;;;;;;6156007;23;19908;-89
2023/09/23 14:52:26;;;;;;;;;;;;;;;;;;6182991;23;19919;-89
2023/09/23 14:54:52;;;;;;;;;;;;;;;;;;6156120;23;19909;-90
2023/09/23 14:57:21;;;;;;;;;;;;;;;;;;6155957;23;20321;-89
2023/09/23 14:59:48;;;;;;;;;;;;;;;;;;6156987;23;19904;-90
2023/09/23 15:02:14;;;;;;;;;;;;;;;;;;6156518;23;20329;-89
2023/09/23 15:04:40;;;;;;;;;;;;;;;;;;6156666;23;19912;-90
2023/09/23 15:07:06;;;;;;;;;;;;;;;;;;6156362;23;19904;-90
2023/09/23 15:09:32;;;;;;;;;;;;;;;;;;6156533;23;19943;-90
2023/09/23 15:11:58;;;;;;;;;;;;;;;;;;6155403;23;19905;-90
2023/09/23 15:14:25;;;;;;;;;;;;;;;;;;6155640;23;19983;-89
2023/09/23 15:16:51;;;;;;;;;;;;;;;;;;6182559;23;19932;-89
2023/09/23 15:19:18;;;;;;;;;;;;;;;;;;6182947;23;20007;-89
2023/09/23 15:21:44;;;;;;;;;;;;;;;;;;6155390;23;20448;-89
2023/09/23 15:24:10;;;;;;;;;;;;;;;;;;6156536;23;19983;-89
2023/09/23 15:26:42;;;;;;;;;;;;;;;;;;6155492;23;19935;-90
2023/09/23 15:29:09;;;;;;;;;;;;;;;;;;6157025;23;19939;-90
2023/09/23 15:31:35;;;;;;;;;;;;;;;;;;6157154;23;19908;-89
2023/09/23 15:34:01;;;;;;;;;;;;;;;;;;6157760;23;19983;-89
2023/09/23 15:36:27;;;;;;;;;;;;;;;;;;6156299;23;19920;-89
2023/09/23 15:38:56;;;;;;;;;;;;;;;;;;6181483;23;19992;-90
2023/09/23 15:41:21;;;;;;;;;;;;;;;;;;6180589;23;19912;-89
2023/09/23 15:43:48;;;;;;;;;;;;;;;;;;6155639;23;20361;-89
2023/09/23 15:46:13;;;;;;;;;;;;;;;;;;6155336;23;20367;-89
2023/09/23 15:48:39;;;;;;;;;;;;;;;;;;6154892;23;19971;-90
2023/09/23 15:51:05;;;;;;;;;;;;;;;;;;6154854;23;19904;-89
2023/09/23 15:53:32;;;;;;;;;;;;;;;;;;6154399;23;19911;-89
2023/09/23 15:55:58;;;;;;;;;;;;;;;;;;6155728;23;20297;-89
2023/09/23 15:58:24;;;;;;;;;;;;;;;;;;6155800;23;19936;-89
2023/09/23 16:00:50;;;;;;;;;;;;;;;;;;6155891;23;19940;-90
2023/09/23 16:03:17;;;;;;;;;;;;;;;;;;6155300;23;20338;-90
2023/09/23 16:05:43;;;;;;;;;;;;;;;;;;6155421;23;19908;-90
2023/09/23 16:08:09;;;;;;;;;;;;;;;;;;6154477;23;19923;-89
2023/09/23 16:10:35;;;;;;;;;;;;;;;;;;6153816;23;20487;-90
2023/09/23 16:13:01;;;;;;;;;;;;;;;;;;6154552;23;19908;-90
2023/09/23 16:15:27;;;;;;;;;;;;;;;;;;6153053;23;19996;-90
2023/09/23 16:17:53;;;;;;;;;;;;;;;;;;6154566;23;19991;-90
2023/09/23 16:20:18;;;;;;;;;;;;;;;;;;6155281;23;19959;-89
2023/09/23 16:22:44;;;;;;;;;;;;;;;;;;6154655;23;19904;-89
2023/09/23 16:25:10;;;;;;;;;;;;;;;;;;6153663;23;19970;-89
2023/09/23 16:27:40;;;;;;;;;;;;;;;;;;6155417;23;19908;-90
2023/09/23 16:30:06;;;;;;;;;;;;;;;;;;6155706;23;19935;-89
2023/09/23 16:32:32;;;;;;;;;;;;;;;;;;6154235;23;20362;-90
2023/09/23 16:34:58;;;;;;;;;;;;;;;;;;6155921;23;19935;-89
2023/09/23 16:37:24;;;;;;;;;;;;;;;;;;6154942;23;19916;-89
2023/09/23 16:39:50;;;;;;;;;;;;;;;;;;6155455;23;20321;-89
2023/09/23 16:42:16;;;;;;;;;;;;;;;;;;6155146;23;19915;-89
2023/09/23 16:44:48;;;;;;;;;;;;;;;;;;6157221;23;19920;-89